createdAt,value
2019-02-27T00:00:27.790Z,2.90
2019-02-27T00:01:27.776Z,2.80
2019-02-27T00:02:27.756Z,2.80
2019-02-27T00:03:29.100Z,3.40
2019-02-27T00:04:27.739Z,2.70
2019-02-27T00:05:27.723Z,2.60
2019-02-27T00:06:27.732Z,2.60
2019-02-27T00:07:27.701Z,2.10
2019-02-27T00:08:27.701Z,2.60
2019-02-27T00:09:27.678Z,2.70
2019-02-27T00:10:27.665Z,2.60
2019-02-27T00:11:27.667Z,2.50
2019-02-27T00:12:27.651Z,2.40
2019-02-27T00:13:27.632Z,2.70
2019-02-27T00:14:28.862Z,2.40
2019-02-27T00:15:27.612Z,3.10
2019-02-27T00:16:27.619Z,2.70
2019-02-27T00:17:27.590Z,3.30
2019-02-27T00:18:27.594Z,3.20
2019-02-27T00:19:30.931Z,2.90
2019-02-27T00:20:27.562Z,2.90
2019-02-27T00:21:27.545Z,2.90
2019-02-27T00:22:27.548Z,3.00
2019-02-27T00:23:27.522Z,2.50
2019-02-27T00:24:29.904Z,3.10
2019-02-27T00:25:27.497Z,2.10
2019-02-27T00:26:27.489Z,2.30
2019-02-27T00:27:27.490Z,3.00
2019-02-27T00:28:27.466Z,3.60
2019-02-27T00:29:28.983Z,2.60
2019-02-27T00:30:27.454Z,2.40
2019-02-27T00:31:27.439Z,2.20
2019-02-27T00:32:27.454Z,2.40
2019-02-27T00:33:28.698Z,2.00
2019-02-27T00:34:27.400Z,2.20
2019-02-27T00:35:27.390Z,2.60
2019-02-27T00:36:27.388Z,2.40
2019-02-27T00:37:27.367Z,2.90
2019-02-27T00:38:27.368Z,2.80
2019-02-27T00:39:30.815Z,2.30
2019-02-27T00:40:27.335Z,2.60
2019-02-27T00:41:27.324Z,3.60
2019-02-27T00:42:33.450Z,2.30
2019-02-27T00:43:29.045Z,2.60
2019-02-27T00:44:27.304Z,2.30
2019-02-27T00:45:27.290Z,2.50
2019-02-27T00:46:27.267Z,2.60
2019-02-27T00:47:27.271Z,2.90
2019-02-27T00:48:27.251Z,2.60
2019-02-27T00:49:27.235Z,2.40
2019-02-27T00:50:27.267Z,2.30
2019-02-27T00:51:27.215Z,2.40
2019-02-27T00:52:27.204Z,3.20
2019-02-27T00:53:27.193Z,3.20
2019-02-27T00:54:29.042Z,2.70
2019-02-27T00:55:27.168Z,2.90
2019-02-27T00:56:27.171Z,3.00
2019-02-27T00:57:27.155Z,2.10
2019-02-27T00:58:27.630Z,2.80
2019-02-27T00:59:27.166Z,2.50
2019-02-27T01:00:27.160Z,3.10
2019-02-27T01:01:27.105Z,2.90
2019-02-27T01:02:27.097Z,2.60
2019-02-27T01:03:27.085Z,3.20
2019-02-27T01:04:27.076Z,3.00
2019-02-27T01:05:27.060Z,2.50
2019-02-27T01:06:27.093Z,3.00
2019-02-27T01:07:27.040Z,2.70
2019-02-27T01:08:27.620Z,2.70
2019-02-27T01:09:27.015Z,3.00
2019-02-27T01:10:27.005Z,2.60
2019-02-27T01:11:26.994Z,2.80
2019-02-27T01:12:27.003Z,2.40
2019-02-27T01:13:28.888Z,2.60
2019-02-27T01:14:26.964Z,3.00
2019-02-27T01:15:26.963Z,2.70
2019-02-27T01:16:26.945Z,3.70
2019-02-27T01:17:26.968Z,2.70
2019-02-27T01:18:30.375Z,3.30
2019-02-27T01:19:26.906Z,2.60
2019-02-27T01:20:26.896Z,3.10
2019-02-27T01:21:26.884Z,2.80
2019-02-27T01:22:26.874Z,2.90
2019-02-27T01:23:26.875Z,2.40
2019-02-27T01:24:26.860Z,3.70
2019-02-27T01:25:26.842Z,3.10
2019-02-27T01:26:30.560Z,3.00
2019-02-27T01:27:26.832Z,3.10
2019-02-27T01:28:26.844Z,2.50
2019-02-27T01:29:26.797Z,2.10
2019-02-27T01:30:26.808Z,1.80
2019-02-27T01:31:26.776Z,2.90
2019-02-27T01:32:28.844Z,2.90
2019-02-27T01:33:26.753Z,2.50
2019-02-27T01:34:26.772Z,2.40
2019-02-27T01:35:26.733Z,2.30
2019-02-27T01:36:26.725Z,2.80
2019-02-27T01:37:31.364Z,2.50
2019-02-27T01:38:26.705Z,2.20
2019-02-27T01:39:26.688Z,3.20
2019-02-27T01:40:26.691Z,3.30
2019-02-27T01:41:26.674Z,2.40
2019-02-27T01:42:31.952Z,2.50
2019-02-27T01:43:27.642Z,3.00
2019-02-27T01:44:26.634Z,2.40
2019-02-27T01:45:26.658Z,2.50
2019-02-27T01:46:27.738Z,2.70
2019-02-27T01:47:26.599Z,3.40
2019-02-27T01:48:26.595Z,2.90
2019-02-27T01:49:26.585Z,3.10
2019-02-27T01:50:26.570Z,2.30
2019-02-27T01:51:28.333Z,2.10
2019-02-27T01:52:26.544Z,2.50
2019-02-27T01:53:26.534Z,2.40
2019-02-27T01:54:26.547Z,2.80
2019-02-27T01:55:26.511Z,2.50
2019-02-27T01:56:28.930Z,3.00
2019-02-27T01:57:26.488Z,2.50
2019-02-27T01:58:26.477Z,2.40
2019-02-27T01:59:26.468Z,2.80
2019-02-27T02:00:26.466Z,2.50
2019-02-27T02:01:29.849Z,2.50
2019-02-27T02:02:26.447Z,2.60
2019-02-27T02:03:26.424Z,3.50
2019-02-27T02:04:26.442Z,2.70
2019-02-27T02:05:27.358Z,2.30
2019-02-27T02:06:26.410Z,2.00
2019-02-27T02:07:26.397Z,2.40
2019-02-27T02:08:26.371Z,2.30
2019-02-27T02:09:26.359Z,2.50
2019-02-27T02:10:28.275Z,2.30
2019-02-27T02:11:26.335Z,2.60
2019-02-27T02:12:26.336Z,2.10
2019-02-27T02:13:26.322Z,2.60
2019-02-27T02:14:26.314Z,2.00
2019-02-27T02:15:27.286Z,3.20
2019-02-27T02:16:26.281Z,2.20
2019-02-27T02:17:26.270Z,3.20
2019-02-27T02:18:26.265Z,1.90
2019-02-27T02:19:26.248Z,2.50
2019-02-27T02:20:27.203Z,2.50
2019-02-27T02:21:26.249Z,2.60
2019-02-27T02:22:26.215Z,2.60
2019-02-27T02:23:26.204Z,2.50
2019-02-27T02:24:26.206Z,3.30
2019-02-27T02:25:27.983Z,2.10
2019-02-27T02:26:26.172Z,2.10
2019-02-27T02:27:26.174Z,2.20
2019-02-27T02:28:26.151Z,2.50
2019-02-27T02:29:26.140Z,2.20
2019-02-27T02:30:29.718Z,2.30
2019-02-27T02:31:26.154Z,2.80
2019-02-27T02:32:26.107Z,2.40
2019-02-27T02:33:30.181Z,2.60
2019-02-27T02:34:26.094Z,3.10
2019-02-27T02:35:26.093Z,2.30
2019-02-27T02:36:26.845Z,3.50
2019-02-27T02:37:26.090Z,2.70
2019-02-27T02:38:26.047Z,1.80
2019-02-27T02:39:26.030Z,2.80
2019-02-27T02:40:30.856Z,2.60
2019-02-27T02:41:27.007Z,1.90
2019-02-27T02:42:26.013Z,2.70
2019-02-27T02:43:26.010Z,1.90
2019-02-27T02:44:25.974Z,2.40
2019-02-27T02:45:25.973Z,2.80
2019-02-27T02:46:25.953Z,2.80
2019-02-27T02:47:25.942Z,2.80
2019-02-27T02:48:27.813Z,3.20
2019-02-27T02:49:26.955Z,2.70
2019-02-27T02:50:25.911Z,2.40
2019-02-27T02:51:29.014Z,2.50
2019-02-27T02:52:25.889Z,2.60
2019-02-27T02:53:26.031Z,2.70
2019-02-27T02:54:25.873Z,3.00
2019-02-27T02:55:25.878Z,2.10
2019-02-27T02:56:25.843Z,2.80
2019-02-27T02:57:25.833Z,2.30
2019-02-27T02:58:25.829Z,2.50
2019-02-27T02:59:26.035Z,2.00
2019-02-27T03:00:25.811Z,2.40
2019-02-27T03:01:25.814Z,2.90
2019-02-27T03:02:25.778Z,2.40
2019-02-27T03:03:25.768Z,2.40
2019-02-27T03:04:25.756Z,2.80
2019-02-27T03:05:25.744Z,2.80
2019-02-27T03:06:25.743Z,2.00
2019-02-27T03:07:25.736Z,2.70
2019-02-27T03:08:25.724Z,2.20
2019-02-27T03:09:30.049Z,2.60
2019-02-27T03:10:26.695Z,2.70
2019-02-27T03:11:25.678Z,2.50
2019-02-27T03:12:29.946Z,2.70
2019-02-27T03:13:26.654Z,2.20
2019-02-27T03:14:25.646Z,2.20
2019-02-27T03:15:28.459Z,2.80
2019-02-27T03:16:25.625Z,1.80
2019-02-27T03:17:25.626Z,2.40
2019-02-27T03:18:26.319Z,2.80
2019-02-27T03:19:25.590Z,2.10
2019-02-27T03:20:25.579Z,2.90
2019-02-27T03:21:28.551Z,2.40
2019-02-27T03:22:25.556Z,2.70
2019-02-27T03:23:25.547Z,3.00
2019-02-27T03:24:28.222Z,2.40
2019-02-27T03:25:25.525Z,2.80
2019-02-27T03:26:25.552Z,2.20
2019-02-27T03:27:29.605Z,2.80
2019-02-27T03:28:26.511Z,2.30
2019-02-27T03:29:25.482Z,2.50
2019-02-27T03:30:34.147Z,2.10
2019-02-27T03:31:26.486Z,2.50
2019-02-27T03:32:25.450Z,3.00
2019-02-27T03:33:27.288Z,2.40
2019-02-27T03:34:25.428Z,2.70
2019-02-27T03:35:29.121Z,2.50
2019-02-27T03:36:25.417Z,2.10
2019-02-27T03:37:25.409Z,3.50
2019-02-27T03:38:25.386Z,2.60
2019-02-27T03:39:25.377Z,2.50
2019-02-27T03:40:25.380Z,2.30
2019-02-27T03:41:25.350Z,2.80
2019-02-27T03:42:25.345Z,3.10
2019-02-27T03:43:25.329Z,3.00
2019-02-27T03:44:25.317Z,2.50
2019-02-27T03:45:30.660Z,2.60
2019-02-27T03:46:26.294Z,2.40
2019-02-27T03:47:25.283Z,2.80
2019-02-27T03:48:27.851Z,2.40
2019-02-27T03:49:25.263Z,2.50
2019-02-27T03:50:25.264Z,2.80
2019-02-27T03:51:25.380Z,1.90
2019-02-27T03:52:25.227Z,2.70
2019-02-27T03:53:25.216Z,2.40
2019-02-27T03:54:25.261Z,2.70
2019-02-27T03:55:25.196Z,3.00
2019-02-27T03:56:25.211Z,3.80
2019-02-27T03:57:25.185Z,2.70
2019-02-27T03:58:26.813Z,2.30
2019-02-27T03:59:26.152Z,2.60
2019-02-27T04:00:25.153Z,2.30
2019-02-27T04:01:30.017Z,2.30
2019-02-27T04:02:26.129Z,2.60
2019-02-27T04:03:25.123Z,2.50
2019-02-27T04:04:29.655Z,1.90
2019-02-27T04:05:26.092Z,2.50
2019-02-27T04:06:25.081Z,3.80
2019-02-27T04:07:25.085Z,2.40
2019-02-27T04:08:25.064Z,2.30
2019-02-27T04:09:25.048Z,3.60
2019-02-27T04:10:30.816Z,2.20
2019-02-27T04:11:26.038Z,2.60
2019-02-27T04:12:25.016Z,2.60
2019-02-27T04:13:27.715Z,2.10
2019-02-27T04:14:24.990Z,2.60
2019-02-27T04:15:24.994Z,2.40
2019-02-27T04:16:28.949Z,2.60
2019-02-27T04:17:25.955Z,3.20
2019-02-27T04:18:28.373Z,2.30
2019-02-27T04:19:24.945Z,2.50
2019-02-27T04:20:24.991Z,2.10
2019-02-27T04:21:25.981Z,2.30
2019-02-27T04:22:24.900Z,2.60
2019-02-27T04:23:24.889Z,2.30
2019-02-27T04:24:24.911Z,2.00
2019-02-27T04:25:24.865Z,2.30
2019-02-27T04:26:24.857Z,2.10
2019-02-27T04:27:24.849Z,2.40
2019-02-27T04:28:29.639Z,2.30
2019-02-27T04:29:25.850Z,2.30
2019-02-27T04:30:24.830Z,2.60
2019-02-27T04:31:29.620Z,2.50
2019-02-27T04:32:25.793Z,2.50
2019-02-27T04:33:24.779Z,2.00
2019-02-27T04:34:24.768Z,2.80
2019-02-27T04:35:24.768Z,2.60
2019-02-27T04:36:24.749Z,2.10
2019-02-27T04:37:24.736Z,2.10
2019-02-27T04:38:24.982Z,1.70
2019-02-27T04:39:24.731Z,2.30
2019-02-27T04:40:24.703Z,2.70
2019-02-27T04:41:24.692Z,2.50
2019-02-27T04:42:25.695Z,2.30
2019-02-27T04:43:24.673Z,2.40
2019-02-27T04:44:24.658Z,3.10
2019-02-27T04:45:24.661Z,2.00
2019-02-27T04:46:24.637Z,2.80
2019-02-27T04:47:28.891Z,3.20
2019-02-27T04:48:27.036Z,2.70
2019-02-27T04:49:25.603Z,2.80
2019-02-27T04:50:24.606Z,2.40
2019-02-27T04:51:24.581Z,2.70
2019-02-27T04:52:24.954Z,2.60
2019-02-27T04:53:24.559Z,2.70
2019-02-27T04:54:24.558Z,2.30
2019-02-27T04:55:24.538Z,2.60
2019-02-27T04:56:24.527Z,2.80
2019-02-27T04:57:24.518Z,2.70
2019-02-27T04:58:24.535Z,2.00
2019-02-27T04:59:24.497Z,3.50
2019-02-27T05:00:26.274Z,2.70
2019-02-27T05:01:24.472Z,2.00
2019-02-27T05:02:24.467Z,2.60
2019-02-27T05:03:25.797Z,2.90
2019-02-27T05:04:24.455Z,2.70
2019-02-27T05:05:24.429Z,2.60
2019-02-27T05:06:24.425Z,2.80
2019-02-27T05:07:24.419Z,3.00
2019-02-27T05:08:26.848Z,2.20
2019-02-27T05:09:24.388Z,3.20
2019-02-27T05:10:24.374Z,2.80
2019-02-27T05:11:24.364Z,2.90
2019-02-27T05:12:24.392Z,2.40
2019-02-27T05:13:24.342Z,2.60
2019-02-27T05:14:24.837Z,2.60
2019-02-27T05:15:24.320Z,2.70
2019-02-27T05:16:24.306Z,2.80
2019-02-27T05:17:24.299Z,2.40
2019-02-27T05:18:24.334Z,2.70
2019-02-27T05:19:24.275Z,1.90
2019-02-27T05:20:24.266Z,2.30
2019-02-27T05:21:24.260Z,2.50
2019-02-27T05:22:26.779Z,2.30
2019-02-27T05:23:24.233Z,2.70
2019-02-27T05:24:24.241Z,2.40
2019-02-27T05:25:24.209Z,2.20
2019-02-27T05:26:27.031Z,2.60
2019-02-27T05:27:24.189Z,3.10
2019-02-27T05:28:24.178Z,2.70
2019-02-27T05:29:24.179Z,2.00
2019-02-27T05:30:24.163Z,2.40
2019-02-27T05:31:24.142Z,2.60
2019-02-27T05:32:25.308Z,2.00
2019-02-27T05:33:24.136Z,2.20
2019-02-27T05:34:24.143Z,2.50
2019-02-27T05:35:24.451Z,2.40
2019-02-27T05:36:24.101Z,2.00
2019-02-27T05:37:24.081Z,3.10
2019-02-27T05:38:24.068Z,2.70
2019-02-27T05:39:24.057Z,2.80
2019-02-27T05:40:25.972Z,2.40
2019-02-27T05:41:24.035Z,2.90
2019-02-27T05:42:24.027Z,2.90
2019-02-27T05:43:24.015Z,2.60
2019-02-27T05:44:24.012Z,2.60
2019-02-27T05:45:23.992Z,2.90
2019-02-27T05:46:23.993Z,2.10
2019-02-27T05:47:23.976Z,1.80
2019-02-27T05:48:23.960Z,2.00
2019-02-27T05:49:26.605Z,2.90
2019-02-27T05:50:23.944Z,2.40
2019-02-27T05:51:23.961Z,2.40
2019-02-27T05:52:23.917Z,2.30
2019-02-27T05:53:23.917Z,2.40
2019-02-27T05:54:23.893Z,2.10
2019-02-27T05:55:23.882Z,3.00
2019-02-27T05:56:23.871Z,2.00
2019-02-27T05:57:23.932Z,2.30
2019-02-27T05:58:23.851Z,2.70
2019-02-27T05:59:23.847Z,2.50
2019-02-27T06:00:23.824Z,2.50
2019-02-27T06:01:23.816Z,2.50
2019-02-27T06:02:25.504Z,2.70
2019-02-27T06:03:23.793Z,2.10
2019-02-27T06:04:25.127Z,3.40
2019-02-27T06:08:02.865Z,2.20
2019-02-27T06:08:55.458Z,2.20
2019-02-27T06:09:55.492Z,2.60
2019-02-27T06:10:56.211Z,2.80
2019-02-27T06:11:55.423Z,2.00
2019-02-27T06:12:55.423Z,2.00
2019-02-27T06:13:55.407Z,2.40
2019-02-27T06:14:55.594Z,2.90
2019-02-27T06:15:55.379Z,2.30
2019-02-27T06:16:55.377Z,2.40
2019-02-27T06:17:55.370Z,2.30
2019-02-27T06:18:56.252Z,2.50
2019-02-27T06:19:55.334Z,3.00
2019-02-27T06:20:55.325Z,2.20
2019-02-27T06:21:56.270Z,2.00
2019-02-27T06:22:55.320Z,2.70
2019-02-27T06:23:55.308Z,2.50
2019-02-27T06:24:55.282Z,2.40
2019-02-27T06:25:59.006Z,2.50
2019-02-27T06:26:55.262Z,2.30
2019-02-27T06:27:55.251Z,2.30
2019-02-27T06:28:55.254Z,2.40
2019-02-27T06:29:56.963Z,2.30
2019-02-27T06:30:55.216Z,2.30
2019-02-27T06:31:55.205Z,2.50
2019-02-27T06:32:55.199Z,3.00
2019-02-27T06:33:55.190Z,2.60
2019-02-27T06:34:59.268Z,2.90
2019-02-27T06:35:55.166Z,2.30
2019-02-27T06:36:55.150Z,1.50
2019-02-27T06:37:55.139Z,2.00
2019-02-27T06:38:55.161Z,2.40
2019-02-27T06:39:55.126Z,2.20
2019-02-27T06:40:55.108Z,2.30
2019-02-27T06:41:55.098Z,3.50
2019-02-27T06:42:56.812Z,1.90
2019-02-27T06:43:55.074Z,2.50
2019-02-27T06:44:55.081Z,2.50
2019-02-27T06:45:55.072Z,2.30
2019-02-27T06:46:55.042Z,2.60
2019-02-27T06:47:55.031Z,2.40
2019-02-27T06:48:56.469Z,2.50
2019-02-27T06:49:55.008Z,2.70
2019-02-27T06:50:55.007Z,2.70
2019-02-27T06:51:54.991Z,2.20
2019-02-27T06:52:54.974Z,2.20
2019-02-27T06:53:54.965Z,2.80
2019-02-27T06:54:54.953Z,3.20
2019-02-27T06:55:54.951Z,2.70
2019-02-27T06:56:54.933Z,2.50
2019-02-27T06:57:54.927Z,2.50
2019-02-27T06:58:54.908Z,3.30
2019-02-27T06:59:57.143Z,2.70
2019-02-27T07:00:55.906Z,2.20
2019-02-27T07:01:54.875Z,2.20
2019-02-27T07:02:55.506Z,3.20
2019-02-27T07:03:54.881Z,3.30
2019-02-27T07:04:54.840Z,2.90
2019-02-27T07:05:54.829Z,2.60
2019-02-27T07:06:55.525Z,2.60
2019-02-27T07:07:54.810Z,2.40
2019-02-27T07:08:54.822Z,2.40
2019-02-27T07:09:54.793Z,3.70
2019-02-27T07:10:57.444Z,2.30
2019-02-27T07:11:54.765Z,2.30
2019-02-27T07:12:55.429Z,2.20
2019-02-27T07:13:54.743Z,3.60
2019-02-27T07:14:54.744Z,3.10
2019-02-27T07:15:55.674Z,2.40
2019-02-27T07:16:57.193Z,2.30
2019-02-27T07:17:54.700Z,3.10
2019-02-27T07:18:54.688Z,3.40
2019-02-27T07:19:54.723Z,2.60
2019-02-27T07:20:55.688Z,2.40
2019-02-27T07:21:54.672Z,2.90
2019-02-27T07:22:54.645Z,2.60
2019-02-27T07:23:57.880Z,3.30
2019-02-27T07:24:54.630Z,3.30
2019-02-27T07:25:54.646Z,3.00
2019-02-27T07:26:54.599Z,2.90
2019-02-27T07:27:54.596Z,2.60
2019-02-27T07:28:54.581Z,2.20
2019-02-27T07:29:54.566Z,2.70
2019-02-27T07:30:54.556Z,2.70
2019-02-27T07:31:54.558Z,2.50
2019-02-27T07:32:54.539Z,3.00
2019-02-27T07:33:54.530Z,3.10
2019-02-27T07:34:54.511Z,2.80
2019-02-27T07:35:54.502Z,3.10
2019-02-27T07:36:54.502Z,3.40
2019-02-27T07:37:54.483Z,3.40
2019-02-27T07:38:57.544Z,2.30
2019-02-27T07:39:54.462Z,2.90
2019-02-27T07:40:54.445Z,2.30
2019-02-27T07:41:54.474Z,2.40
2019-02-27T07:42:54.423Z,2.70
2019-02-27T07:43:54.414Z,3.40
2019-02-27T07:44:54.401Z,2.00
2019-02-27T07:45:54.464Z,2.70
2019-02-27T07:46:57.291Z,3.20
2019-02-27T07:47:54.380Z,2.70
2019-02-27T07:48:56.689Z,2.90
2019-02-27T07:49:54.354Z,2.40
2019-02-27T07:50:54.336Z,2.60
2019-02-27T07:51:57.035Z,2.80
2019-02-27T07:52:54.340Z,2.80
2019-02-27T07:53:54.545Z,2.10
2019-02-27T07:54:54.290Z,2.30
2019-02-27T07:55:54.277Z,3.10
2019-02-27T07:56:54.268Z,2.50
2019-02-27T07:57:58.530Z,2.70
2019-02-27T07:58:54.250Z,3.20
2019-02-27T07:59:54.250Z,2.70
2019-02-27T08:00:54.225Z,2.40
2019-02-27T08:01:54.214Z,3.10
2019-02-27T08:02:54.202Z,2.50
2019-02-27T08:03:54.228Z,2.80
2019-02-27T08:04:54.722Z,2.50
2019-02-27T08:05:54.167Z,3.30
2019-02-27T08:06:54.156Z,2.60
2019-02-27T08:07:54.150Z,3.10
2019-02-27T08:08:56.962Z,2.70
2019-02-27T08:09:54.164Z,3.10
2019-02-27T08:10:54.112Z,3.40
2019-02-27T08:11:54.109Z,2.50
2019-02-27T08:12:56.407Z,2.30
2019-02-27T08:13:54.079Z,2.50
2019-02-27T08:14:54.068Z,2.80
2019-02-27T08:15:54.076Z,2.10
2019-02-27T08:16:56.942Z,3.00
2019-02-27T08:17:57.450Z,2.40
2019-02-27T08:18:54.024Z,3.30
2019-02-27T08:19:54.011Z,3.00
2019-02-27T08:20:54.611Z,3.10
2019-02-27T08:21:54.000Z,2.80
2019-02-27T08:22:53.979Z,3.30
2019-02-27T08:23:55.118Z,3.50
2019-02-27T08:24:53.957Z,2.80
2019-02-27T08:25:53.965Z,2.90
2019-02-27T08:26:53.938Z,3.20
2019-02-27T08:27:54.340Z,2.00
2019-02-27T08:28:53.912Z,3.40
2019-02-27T08:29:53.903Z,2.70
2019-02-27T08:30:53.928Z,2.80
2019-02-27T08:31:53.879Z,2.50
2019-02-27T08:32:53.868Z,3.30
2019-02-27T08:33:53.868Z,2.50
2019-02-27T08:34:53.847Z,3.00
2019-02-27T08:35:53.835Z,2.80
2019-02-27T08:36:53.836Z,3.30
2019-02-27T08:38:02.236Z,3.40
2019-02-27T08:38:54.800Z,2.70
2019-02-27T08:39:53.797Z,3.00
2019-02-27T08:40:57.244Z,2.50
2019-02-27T08:41:53.789Z,2.90
2019-02-27T08:42:53.757Z,3.50
2019-02-27T08:43:53.748Z,3.00
2019-02-27T08:44:53.734Z,2.70
2019-02-27T08:45:53.733Z,2.90
2019-02-27T08:46:53.711Z,3.20
2019-02-27T08:47:55.642Z,2.90
2019-02-27T08:48:53.719Z,2.60
2019-02-27T08:49:57.567Z,2.80
2019-02-27T08:50:53.674Z,2.40
2019-02-27T08:51:53.663Z,2.80
2019-02-27T08:52:53.643Z,2.80
2019-02-27T08:53:53.634Z,2.70
2019-02-27T08:54:53.659Z,3.00
2019-02-27T08:55:53.612Z,2.50
2019-02-27T08:56:53.615Z,2.70
2019-02-27T08:57:56.884Z,3.40
2019-02-27T08:58:53.577Z,2.20
2019-02-27T08:59:53.564Z,2.50
2019-02-27T09:00:53.568Z,3.00
2019-02-27T09:01:56.293Z,2.90
2019-02-27T09:02:55.521Z,2.60
2019-02-27T09:03:53.521Z,2.20
2019-02-27T09:04:53.521Z,2.20
2019-02-27T09:05:54.455Z,2.70
2019-02-27T09:06:53.486Z,2.90
2019-02-27T09:07:53.478Z,2.00
2019-02-27T09:08:53.473Z,2.50
2019-02-27T09:09:55.158Z,1.80
2019-02-27T09:10:53.444Z,2.90
2019-02-27T09:11:53.430Z,2.50
2019-02-27T09:12:53.426Z,2.60
2019-02-27T09:13:53.409Z,2.30
2019-02-27T09:14:55.844Z,2.50
2019-02-27T09:15:53.845Z,2.40
2019-02-27T09:16:53.374Z,1.90
2019-02-27T09:17:53.371Z,2.50
2019-02-27T09:18:53.366Z,2.40
2019-02-27T09:19:53.344Z,2.90
2019-02-27T09:20:54.223Z,2.40
2019-02-27T09:21:53.320Z,2.20
2019-02-27T09:22:53.307Z,2.80
2019-02-27T09:23:53.296Z,2.40
2019-02-27T09:24:53.289Z,2.20
2019-02-27T09:25:57.220Z,2.00
2019-02-27T09:26:53.270Z,2.00
2019-02-27T09:27:53.253Z,2.10
2019-02-27T09:28:53.241Z,2.20
2019-02-27T09:29:54.891Z,2.20
2019-02-27T09:30:53.222Z,2.10
2019-02-27T09:31:53.220Z,2.60
2019-02-27T09:32:53.207Z,2.10
2019-02-27T09:33:53.903Z,2.40
2019-02-27T09:34:53.173Z,2.10
2019-02-27T09:35:53.162Z,2.70
2019-02-27T09:36:53.165Z,2.40
2019-02-27T09:37:53.139Z,2.30
2019-02-27T09:38:57.416Z,3.10
2019-02-27T09:39:53.119Z,2.50
2019-02-27T09:40:53.115Z,2.00
2019-02-27T09:41:53.129Z,2.70
2019-02-27T09:42:53.972Z,2.70
2019-02-27T09:43:53.078Z,2.00
2019-02-27T09:44:53.067Z,2.40
2019-02-27T09:45:53.050Z,2.70
2019-02-27T09:46:53.163Z,2.30
2019-02-27T09:47:53.055Z,2.10
2019-02-27T09:48:53.022Z,2.10
2019-02-27T09:49:53.012Z,2.40
2019-02-27T09:50:53.002Z,2.00
2019-02-27T09:51:55.845Z,2.20
2019-02-27T09:52:52.987Z,2.70
2019-02-27T09:53:52.962Z,2.70
2019-02-27T09:54:54.806Z,2.10
2019-02-27T09:55:54.275Z,2.60
2019-02-27T09:56:52.937Z,2.10
2019-02-27T09:57:52.929Z,2.90
2019-02-27T09:58:52.905Z,2.70
2019-02-27T09:59:53.655Z,2.20
2019-02-27T10:00:52.906Z,2.30
2019-02-27T10:01:52.881Z,2.90
2019-02-27T10:02:52.876Z,2.40
2019-02-27T10:03:55.258Z,2.00
2019-02-27T10:04:52.837Z,2.40
2019-02-27T10:05:52.845Z,2.00
2019-02-27T10:06:52.814Z,2.00
2019-02-27T10:07:52.804Z,2.30
2019-02-27T10:08:52.843Z,2.30
2019-02-27T10:09:52.779Z,2.50
2019-02-27T10:10:52.766Z,2.20
2019-02-27T10:11:53.194Z,1.80
2019-02-27T10:12:52.750Z,2.40
2019-02-27T10:13:52.738Z,2.00
2019-02-27T10:14:52.743Z,2.40
2019-02-27T10:15:52.756Z,2.20
2019-02-27T10:16:52.723Z,2.10
2019-02-27T10:17:52.688Z,1.80
2019-02-27T10:18:55.645Z,2.20
2019-02-27T10:19:52.667Z,2.40
2019-02-27T10:20:52.663Z,2.30
2019-02-27T10:21:52.645Z,2.50
2019-02-27T10:22:53.975Z,2.10
2019-02-27T10:23:52.635Z,1.80
2019-02-27T10:24:52.615Z,2.10
2019-02-27T10:25:53.239Z,2.50
2019-02-27T10:26:53.546Z,1.80
2019-02-27T10:27:52.576Z,2.30
2019-02-27T10:28:52.565Z,1.80
2019-02-27T10:29:52.554Z,2.20
2019-02-27T10:30:52.547Z,2.30
2019-02-27T10:31:52.570Z,2.00
2019-02-27T10:32:52.530Z,1.70
2019-02-27T10:33:52.509Z,2.00
2019-02-27T10:34:53.663Z,2.60
2019-02-27T10:35:52.502Z,2.00
2019-02-27T10:36:52.527Z,2.00
2019-02-27T10:37:54.427Z,2.50
2019-02-27T10:38:52.459Z,1.80
2019-02-27T10:39:52.440Z,2.40
2019-02-27T10:40:52.431Z,1.80
2019-02-27T10:41:52.419Z,2.20
2019-02-27T10:42:52.422Z,1.80
2019-02-27T10:43:53.966Z,2.20
2019-02-27T10:44:52.395Z,1.80
2019-02-27T10:45:52.374Z,2.30
2019-02-27T10:46:52.366Z,2.70
2019-02-27T10:47:52.361Z,1.70
2019-02-27T10:48:52.350Z,1.90
2019-02-27T10:49:52.342Z,2.30
2019-02-27T10:50:52.325Z,1.90
2019-02-27T10:51:52.307Z,2.30
2019-02-27T10:52:52.303Z,2.50
2019-02-27T10:53:52.298Z,2.20
2019-02-27T10:54:52.282Z,2.00
2019-02-27T10:55:52.262Z,1.80
2019-02-27T10:56:52.256Z,1.60
2019-02-27T10:57:52.257Z,2.30
2019-02-27T10:58:52.239Z,1.90
2019-02-27T10:59:52.216Z,2.50
2019-02-27T11:00:52.217Z,2.40
2019-02-27T11:01:52.199Z,2.20
2019-02-27T11:02:52.613Z,1.80
2019-02-27T11:03:52.177Z,2.10
2019-02-27T11:04:52.164Z,1.90
2019-02-27T11:05:55.374Z,2.20
2019-02-27T11:06:52.139Z,1.70
2019-02-27T11:07:52.898Z,2.40
2019-02-27T11:08:52.118Z,1.80
2019-02-27T11:09:52.106Z,1.60
2019-02-27T11:10:52.110Z,1.90
2019-02-27T11:11:53.935Z,2.10
2019-02-27T11:12:52.070Z,1.50
2019-02-27T11:13:54.601Z,2.30
2019-02-27T11:14:52.054Z,2.10
2019-02-27T11:15:52.062Z,1.90
2019-02-27T11:16:52.024Z,2.10
2019-02-27T11:17:52.026Z,2.20
2019-02-27T11:18:52.004Z,2.40
2019-02-27T11:19:51.990Z,2.30
2019-02-27T11:20:51.985Z,1.60
2019-02-27T11:21:51.981Z,1.20
2019-02-27T11:22:51.995Z,1.80
2019-02-27T11:23:51.947Z,1.80
2019-02-27T11:24:52.525Z,1.80
2019-02-27T11:25:56.568Z,1.80
2019-02-27T11:26:51.919Z,1.70
2019-02-27T11:27:51.899Z,1.90
2019-02-27T11:28:51.904Z,1.90
2019-02-27T11:29:51.879Z,1.90
2019-02-27T11:30:51.875Z,2.00
2019-02-27T11:31:51.855Z,1.90
2019-02-27T11:32:56.891Z,1.40
2019-02-27T11:33:52.850Z,1.80
2019-02-27T11:34:51.820Z,1.80
2019-02-27T11:35:51.845Z,1.40
2019-02-27T11:36:51.796Z,2.10
2019-02-27T11:37:51.796Z,2.20
2019-02-27T11:38:51.786Z,1.70
2019-02-27T11:39:51.764Z,1.40
2019-02-27T11:40:51.755Z,1.80
2019-02-27T11:41:51.755Z,1.70
2019-02-27T11:42:51.731Z,2.00
2019-02-27T11:43:52.754Z,1.60
2019-02-27T11:44:51.753Z,1.20
2019-02-27T11:45:51.704Z,1.80
2019-02-27T11:46:58.662Z,2.00
2019-02-27T11:47:52.678Z,1.50
2019-02-27T11:48:51.676Z,1.50
2019-02-27T11:49:51.654Z,1.60
2019-02-27T11:50:51.652Z,1.60
2019-02-27T11:51:53.208Z,1.40
2019-02-27T11:52:51.624Z,1.20
2019-02-27T11:53:51.606Z,1.10
2019-02-27T11:54:51.596Z,1.50
2019-02-27T11:55:51.595Z,1.40
2019-02-27T11:56:56.115Z,1.70
2019-02-27T11:57:52.568Z,1.10
2019-02-27T11:58:51.548Z,1.80
2019-02-27T11:59:51.537Z,1.50
2019-02-27T12:00:51.539Z,1.20
2019-02-27T12:01:55.407Z,1.20
2019-02-27T12:02:51.505Z,1.30
2019-02-27T12:03:51.502Z,1.10
2019-02-27T12:04:55.260Z,1.10
2019-02-27T12:05:52.482Z,1.40
2019-02-27T12:06:51.472Z,1.60
2019-02-27T12:07:51.904Z,1.10
2019-02-27T12:08:51.438Z,1.20
2019-02-27T12:09:51.438Z,1.10
2019-02-27T12:10:51.413Z,1.50
2019-02-27T12:11:51.418Z,1.40
2019-02-27T12:12:51.390Z,1.40
2019-02-27T12:13:51.381Z,1.50
2019-02-27T12:14:51.366Z,1.50
2019-02-27T12:15:51.363Z,1.30
2019-02-27T12:16:51.669Z,1.60
2019-02-27T12:17:51.333Z,1.60
2019-02-27T12:18:51.322Z,1.70
2019-02-27T12:19:51.315Z,1.40
2019-02-27T12:20:53.995Z,1.50
2019-02-27T12:21:51.296Z,1.50
2019-02-27T12:22:51.292Z,1.50
2019-02-27T12:23:51.266Z,1.40
2019-02-27T12:24:52.903Z,1.30
2019-02-27T12:25:51.243Z,1.70
2019-02-27T12:26:51.235Z,1.10
2019-02-27T12:27:51.240Z,1.50
2019-02-27T12:28:52.782Z,1.70
2019-02-27T12:29:51.205Z,1.30
2019-02-27T12:30:51.190Z,1.20
2019-02-27T12:31:51.177Z,1.50
2019-02-27T12:32:55.727Z,1.30
2019-02-27T12:33:52.170Z,1.70
2019-02-27T12:34:51.176Z,1.40
2019-02-27T12:35:51.129Z,1.60
2019-02-27T12:36:52.656Z,1.20
2019-02-27T12:37:51.110Z,1.70
2019-02-27T12:38:51.136Z,1.50
2019-02-27T12:39:51.089Z,1.30
2019-02-27T12:40:51.073Z,0.90
2019-02-27T12:41:51.063Z,1.50
2019-02-27T12:42:51.061Z,1.40
2019-02-27T12:43:52.734Z,1.40
2019-02-27T12:44:53.956Z,1.70
2019-02-27T12:45:51.020Z,1.30
2019-02-27T12:46:51.007Z,1.10
2019-02-27T12:47:50.995Z,1.50
2019-02-27T12:48:51.008Z,1.50
2019-02-27T12:49:51.518Z,1.20
2019-02-27T12:50:50.962Z,1.50
2019-02-27T12:51:50.957Z,2.00
2019-02-27T12:52:50.947Z,1.40
2019-02-27T12:53:54.377Z,1.50
2019-02-27T12:54:50.951Z,1.50
2019-02-27T12:55:50.917Z,1.80
2019-02-27T12:56:50.897Z,1.60
2019-02-27T12:57:52.437Z,1.30
2019-02-27T12:58:50.872Z,1.50
2019-02-27T12:59:50.858Z,1.30
2019-02-27T13:00:50.882Z,1.60
2019-02-27T13:01:51.685Z,1.10
2019-02-27T13:02:50.826Z,1.70
2019-02-27T13:03:50.817Z,1.60
2019-02-27T13:04:52.647Z,1.40
2019-02-27T13:05:50.792Z,1.50
2019-02-27T13:06:50.792Z,1.30
2019-02-27T13:07:50.776Z,1.50
2019-02-27T13:08:52.919Z,1.30
2019-02-27T13:09:50.752Z,1.40
2019-02-27T13:10:50.737Z,1.20
2019-02-27T13:11:50.762Z,1.10
2019-02-27T13:12:51.961Z,1.40
2019-02-27T13:13:50.708Z,1.40
2019-02-27T13:14:50.709Z,1.00
2019-02-27T13:15:50.684Z,1.30
2019-02-27T13:16:50.695Z,1.70
2019-02-27T13:17:56.175Z,1.50
2019-02-27T13:18:51.641Z,1.80
2019-02-27T13:19:50.633Z,2.00
2019-02-27T13:20:50.636Z,1.10